Terminal Aerodrome Forecast
Issued by NWS

Home | Current Version | Previous Version | Text Only | Print | Product List | Glossary On
Versions: 1 2 3 4 5 6 7 8 9 10 11 12 13 14 15 16 17 18 19
000
FTUS44 KLZK 261720
TAFHRO
TAF
KHRO 261720Z 2618/2718 17010G20KT 3SM -RA BR BKN005 OVC030
      TEMPO 2618/2621 2SM -TSRA OVC005CB
     FM270000 27020G30KT 5SM BR OVC010
      TEMPO 2700/2704 3SM -SHRA BR OVC007
     FM270400 29015G25KT P6SM -RA BKN020 OVC040
     FM270900 30007KT P6SM SCT040 OVC080
     FM271500 30006KT P6SM SCT050=

USA.gov is the U.S. government's official web portal to all federal, state and local government web resources and services.